createdAt,value
2022-07-25T00:02:15.703Z,21.88
2022-07-25T00:05:02.214Z,21.84
2022-07-25T00:07:47.495Z,21.81
2022-07-25T00:10:32.999Z,21.82
2022-07-25T00:13:17.974Z,21.68
2022-07-25T00:16:03.322Z,21.71
2022-07-25T00:18:48.573Z,21.69
2022-07-25T00:21:33.767Z,21.69
2022-07-25T00:24:18.592Z,21.71
2022-07-25T00:27:04.034Z,21.68
2022-07-25T00:29:49.101Z,21.65
2022-07-25T00:32:34.405Z,21.66
2022-07-25T00:35:19.739Z,21.68
2022-07-25T00:38:05.313Z,21.62
2022-07-25T00:40:54.219Z,21.57
2022-07-25T00:43:45.521Z,21.54
2022-07-25T00:46:30.913Z,21.48
2022-07-25T00:49:16.807Z,21.36
2022-07-25T00:52:02.235Z,21.36
2022-07-25T00:54:47.466Z,21.39
2022-07-25T00:57:32.737Z,21.33
2022-07-25T01:00:18.583Z,21.20
2022-07-25T01:03:04.279Z,21.20
2022-07-25T01:05:53.559Z,21.21
2022-07-25T01:08:39.158Z,21.22
2022-07-25T01:11:25.565Z,21.17
2022-07-25T01:14:10.391Z,21.17
2022-07-25T01:16:55.888Z,21.18
2022-07-25T01:19:41.183Z,21.14
2022-07-25T01:22:26.073Z,21.09
2022-07-25T01:25:13.235Z,21.10
2022-07-25T01:27:58.565Z,21.06
2022-07-25T01:30:44.288Z,21.07
2022-07-25T01:33:29.640Z,20.97
2022-07-25T01:36:14.701Z,20.88
2022-07-25T01:39:00.034Z,20.91
2022-07-25T01:41:45.197Z,20.90
2022-07-25T01:44:30.707Z,20.89
2022-07-25T01:47:15.837Z,20.90
2022-07-25T01:50:00.929Z,20.92
2022-07-25T01:52:46.469Z,20.86
2022-07-25T01:55:31.644Z,20.87
2022-07-25T01:58:17.741Z,20.90
2022-07-25T02:01:04.195Z,20.85
2022-07-25T02:03:49.693Z,20.78
2022-07-25T02:06:34.605Z,20.76
2022-07-25T02:09:19.683Z,20.76
2022-07-25T02:12:05.498Z,20.80
2022-07-25T02:14:50.857Z,20.78
2022-07-25T02:17:36.051Z,20.75
2022-07-25T02:20:21.578Z,20.73
2022-07-25T02:23:06.808Z,20.71
2022-07-25T02:25:52.170Z,20.73
2022-07-25T02:28:37.513Z,20.69
2022-07-25T02:31:22.582Z,20.71
2022-07-25T02:34:08.332Z,20.71
2022-07-25T02:36:53.623Z,20.68
2022-07-25T02:39:38.608Z,20.64
2022-07-25T02:42:23.722Z,20.59
2022-07-25T02:45:09.666Z,20.38
2022-07-25T02:47:54.944Z,20.41
2022-07-25T02:50:41.910Z,20.41
2022-07-25T02:53:54.407Z,20.37
2022-07-25T02:56:32.207Z,20.32
2022-07-25T02:59:17.362Z,20.31
2022-07-25T03:02:02.249Z,20.30
2022-07-25T03:04:47.735Z,20.31
2022-07-25T03:07:33.133Z,20.26
2022-07-25T03:10:18.556Z,20.27
2022-07-25T03:13:03.793Z,20.24
2022-07-25T03:15:49.128Z,20.28
2022-07-25T03:18:36.421Z,20.25
2022-07-25T03:21:21.768Z,20.22
2022-07-25T03:24:07.463Z,20.19
2022-07-25T03:26:52.948Z,20.15
2022-07-25T03:29:38.744Z,20.10
2022-07-25T03:32:24.195Z,20.12
2022-07-25T03:35:09.516Z,20.07
2022-07-25T03:37:54.641Z,20.04
2022-07-25T03:40:40.394Z,20.03
2022-07-25T03:43:25.446Z,20.07
2022-07-25T03:46:11.095Z,20.11
2022-07-25T03:48:56.488Z,20.10
2022-07-25T03:51:41.999Z,20.06
2022-07-25T03:54:27.367Z,20.03
2022-07-25T03:57:12.617Z,19.95
2022-07-25T03:59:58.017Z,20.00
2022-07-25T04:02:43.489Z,19.95
2022-07-25T04:05:28.817Z,19.96
2022-07-25T04:08:14.281Z,19.97
2022-07-25T04:10:59.229Z,19.97
2022-07-25T04:13:44.550Z,19.98
2022-07-25T04:16:30.345Z,20.00
2022-07-25T04:19:15.770Z,20.03
2022-07-25T04:22:02.249Z,20.05
2022-07-25T04:24:47.753Z,20.07
2022-07-25T04:27:33.114Z,20.11
2022-07-25T04:30:24.129Z,20.12
2022-07-25T04:33:09.701Z,20.20
2022-07-25T04:35:55.096Z,20.24
2022-07-25T04:38:40.460Z,20.23
2022-07-25T04:41:25.220Z,20.22
2022-07-25T04:44:10.213Z,20.25
2022-07-25T04:46:55.697Z,20.29
2022-07-25T04:49:40.498Z,20.28
2022-07-25T04:52:25.270Z,20.30
2022-07-25T04:55:11.184Z,20.30
2022-07-25T04:57:56.544Z,20.37
2022-07-25T05:00:42.173Z,20.37
2022-07-25T05:03:27.502Z,20.44
2022-07-25T05:06:12.559Z,20.57
2022-07-25T05:08:58.971Z,20.66
2022-07-25T05:11:48.646Z,20.72
2022-07-25T05:14:35.669Z,20.86
2022-07-25T05:17:21.322Z,20.98
2022-07-25T05:20:07.457Z,21.06
2022-07-25T05:22:53.217Z,21.14
2022-07-25T05:25:38.260Z,21.22
2022-07-25T05:28:23.559Z,21.27
2022-07-25T05:31:08.489Z,21.35
2022-07-25T05:33:53.826Z,21.41
2022-07-25T05:36:40.526Z,21.49
2022-07-25T05:39:27.079Z,21.70
2022-07-25T05:42:11.949Z,21.80
2022-07-25T05:44:57.304Z,21.90
2022-07-25T05:47:42.728Z,22.03
2022-07-25T05:50:28.057Z,22.14
2022-07-25T05:53:13.027Z,22.27
2022-07-25T05:55:58.337Z,22.30
2022-07-25T05:58:43.961Z,22.35
2022-07-25T06:01:29.376Z,22.40
2022-07-25T06:04:14.646Z,22.53
2022-07-25T06:07:00.114Z,22.67
2022-07-25T06:09:45.556Z,22.80
2022-07-25T06:12:30.936Z,22.93
2022-07-25T06:15:22.370Z,23.05
2022-07-25T06:18:08.119Z,23.20
2022-07-25T06:20:53.669Z,23.33
2022-07-25T06:23:38.931Z,23.49
2022-07-25T06:26:24.373Z,23.55
2022-07-25T06:29:10.383Z,23.62
2022-07-25T06:31:55.607Z,23.62
2022-07-25T06:34:40.972Z,23.57
2022-07-25T06:37:26.594Z,23.59
2022-07-25T06:40:12.137Z,23.64
2022-07-25T06:42:57.720Z,23.71
2022-07-25T06:45:42.793Z,23.81
2022-07-25T06:48:28.266Z,23.96
2022-07-25T06:51:13.717Z,24.04
2022-07-25T06:53:58.977Z,24.10
2022-07-25T06:56:44.287Z,24.21
2022-07-25T06:59:29.501Z,24.32
2022-07-25T07:02:14.855Z,24.44
2022-07-25T07:05:00.434Z,24.61
2022-07-25T07:07:47.933Z,24.82
2022-07-25T07:10:33.550Z,24.94
2022-07-25T07:13:23.958Z,25.11
2022-07-25T07:16:09.788Z,25.34
2022-07-25T07:18:55.665Z,25.66
2022-07-25T07:21:41.966Z,25.94
2022-07-25T07:24:27.370Z,26.09
2022-07-25T07:27:12.767Z,26.27
2022-07-25T07:29:57.631Z,26.27
2022-07-25T07:32:43.203Z,26.30
2022-07-25T07:35:28.542Z,26.44
2022-07-25T07:38:20.014Z,26.65
2022-07-25T07:41:04.889Z,27.05
2022-07-25T07:43:50.462Z,27.44
2022-07-25T07:46:35.556Z,27.63
2022-07-25T07:49:21.017Z,27.82
2022-07-25T07:52:06.475Z,27.90
2022-07-25T07:54:54.318Z,28.01
2022-07-25T07:57:41.742Z,28.27
2022-07-25T08:00:28.226Z,28.49
2022-07-25T08:03:18.204Z,28.64
2022-07-25T08:06:04.097Z,28.64
2022-07-25T08:08:49.597Z,28.79
2022-07-25T08:11:34.416Z,29.56
2022-07-25T08:14:19.843Z,29.80
2022-07-25T08:17:05.183Z,30.12
2022-07-25T08:19:51.494Z,30.66
2022-07-25T08:22:42.521Z,31.02
2022-07-25T08:25:27.587Z,31.31
2022-07-25T08:28:13.508Z,31.02
2022-07-25T08:30:59.208Z,30.88
2022-07-25T08:33:44.978Z,30.43
2022-07-25T08:36:34.559Z,30.35
2022-07-25T08:39:19.941Z,29.94
2022-07-25T08:42:10.810Z,29.53
2022-07-25T08:44:59.798Z,29.49
2022-07-25T08:47:46.431Z,29.31
2022-07-25T08:50:31.623Z,29.14
2022-07-25T08:53:34.794Z,29.01
2022-07-25T08:56:21.304Z,29.14
2022-07-25T08:59:06.445Z,29.13
2022-07-25T09:01:51.841Z,29.16
2022-07-25T09:04:37.425Z,29.23
2022-07-25T09:07:41.789Z,29.27
2022-07-25T09:10:28.360Z,29.18
2022-07-25T09:13:14.995Z,29.04
2022-07-25T09:15:59.956Z,29.07
2022-07-25T09:18:45.249Z,28.96
2022-07-25T09:21:30.305Z,28.81
2022-07-25T09:24:18.329Z,28.88
2022-07-25T09:27:12.626Z,28.80
2022-07-25T09:29:58.274Z,28.64
2022-07-25T09:32:43.493Z,28.58
2022-07-25T09:35:33.202Z,28.46
2022-07-25T09:38:20.462Z,28.48
2022-07-25T09:41:05.805Z,28.59
2022-07-25T09:43:51.098Z,28.73
2022-07-25T09:46:36.551Z,28.68
2022-07-25T09:49:21.922Z,28.68
2022-07-25T09:52:07.219Z,28.47
2022-07-25T09:54:52.900Z,28.33
2022-07-25T09:57:38.366Z,28.39
2022-07-25T10:00:29.022Z,28.36
2022-07-25T10:03:29.158Z,28.42
2022-07-25T10:06:39.118Z,28.38
2022-07-25T10:09:25.196Z,28.51
2022-07-25T10:12:12.741Z,28.52
2022-07-25T10:15:10.483Z,28.43
2022-07-25T10:18:03.804Z,28.50
2022-07-25T10:20:52.204Z,28.73
2022-07-25T10:23:37.726Z,28.90
2022-07-25T10:26:23.188Z,29.07
2022-07-25T10:29:10.259Z,29.05
2022-07-25T10:32:05.942Z,29.31
2022-07-25T10:34:54.457Z,29.27
2022-07-25T10:37:39.777Z,28.88
2022-07-25T10:40:39.492Z,28.99
2022-07-25T10:43:26.228Z,29.68
2022-07-25T10:46:14.389Z,30.83
2022-07-25T10:49:02.738Z,31.39
2022-07-25T10:51:59.414Z,31.26
2022-07-25T10:54:59.573Z,30.89
2022-07-25T10:58:07.891Z,31.47
2022-07-25T11:00:50.086Z,31.13
2022-07-25T11:03:35.587Z,31.04
2022-07-25T11:06:31.181Z,30.99
2022-07-25T11:09:28.774Z,31.26
2022-07-25T11:12:16.768Z,30.75
2022-07-25T11:15:05.242Z,30.44
2022-07-25T11:17:52.449Z,30.25
2022-07-25T11:20:37.790Z,29.97
2022-07-25T11:23:23.143Z,29.80
2022-07-25T11:26:10.961Z,29.82
2022-07-25T11:28:56.301Z,29.80
2022-07-25T11:31:41.936Z,30.03
2022-07-25T11:34:29.490Z,30.09
2022-07-25T11:37:15.899Z,30.06
2022-07-25T11:40:01.379Z,30.10
2022-07-25T11:42:57.222Z,29.71
2022-07-25T11:45:42.598Z,29.49
2022-07-25T11:48:39.774Z,29.55
2022-07-25T11:51:25.148Z,29.41
2022-07-25T11:54:11.372Z,29.02
2022-07-25T11:56:56.305Z,29.05
2022-07-25T11:59:42.559Z,29.09
2022-07-25T12:02:31.180Z,29.16
2022-07-25T12:05:19.827Z,29.24
2022-07-25T12:08:16.927Z,29.36
2022-07-25T12:11:02.480Z,29.48
2022-07-25T12:13:49.016Z,30.16
2022-07-25T12:16:35.474Z,30.94
2022-07-25T12:19:22.935Z,31.68
2022-07-25T12:22:08.028Z,32.00
2022-07-25T12:24:53.909Z,32.74
2022-07-25T12:27:39.766Z,33.56
2022-07-25T12:30:26.358Z,34.19
2022-07-25T12:33:12.036Z,34.99
2022-07-25T12:35:57.117Z,34.11
2022-07-25T12:38:42.590Z,34.34
2022-07-25T12:41:28.077Z,34.64
2022-07-25T12:44:13.373Z,33.86
2022-07-25T12:46:58.798Z,32.95
2022-07-25T12:49:44.145Z,32.84
2022-07-25T12:52:29.445Z,33.62
2022-07-25T12:55:18.017Z,32.84
2022-07-25T12:58:03.306Z,31.65
2022-07-25T13:00:48.396Z,31.76
2022-07-25T13:03:33.794Z,31.29
2022-07-25T13:06:19.209Z,30.49
2022-07-25T13:09:04.865Z,30.25
2022-07-25T13:11:50.505Z,30.11
2022-07-25T13:14:35.892Z,30.61
2022-07-25T13:17:25.059Z,30.29
2022-07-25T13:20:12.466Z,30.27
2022-07-25T13:22:57.849Z,29.75
2022-07-25T13:25:43.270Z,29.78
2022-07-25T13:28:29.174Z,29.91
2022-07-25T13:31:14.813Z,30.27
2022-07-25T13:34:00.004Z,30.63
2022-07-25T13:36:44.936Z,30.29
2022-07-25T13:39:30.296Z,30.02
2022-07-25T13:42:15.830Z,29.78
2022-07-25T13:45:01.017Z,29.86
2022-07-25T13:47:47.040Z,29.64
2022-07-25T13:50:35.572Z,29.45
2022-07-25T13:53:20.933Z,29.96
2022-07-25T13:56:06.151Z,30.12
2022-07-25T13:58:51.606Z,29.74
2022-07-25T14:01:36.956Z,29.44
2022-07-25T14:04:22.812Z,29.45
2022-07-25T14:07:08.239Z,29.49
2022-07-25T14:09:53.548Z,29.46
2022-07-25T14:12:38.588Z,29.61
2022-07-25T14:15:23.701Z,29.59
2022-07-25T14:18:09.125Z,29.60
2022-07-25T14:20:53.934Z,29.49
2022-07-25T14:23:39.445Z,29.41
2022-07-25T14:26:24.386Z,29.08
2022-07-25T14:29:09.670Z,29.13
2022-07-25T14:31:55.337Z,29.08
2022-07-25T14:34:40.586Z,29.22
2022-07-25T14:37:26.041Z,29.13
2022-07-25T14:40:12.191Z,29.11
2022-07-25T14:42:57.469Z,29.17
2022-07-25T14:45:42.937Z,29.11
2022-07-25T14:48:28.365Z,29.23
2022-07-25T14:51:13.317Z,29.40
2022-07-25T14:53:58.771Z,29.43
2022-07-25T14:56:44.483Z,29.50
2022-07-25T14:59:29.987Z,29.48
2022-07-25T15:02:15.094Z,29.46
2022-07-25T15:05:00.481Z,29.20
2022-07-25T15:07:45.847Z,29.22
2022-07-25T15:10:31.333Z,29.30
2022-07-25T15:13:32.656Z,28.95
2022-07-25T15:16:17.904Z,28.55
2022-07-25T15:19:16.503Z,28.58
2022-07-25T15:22:02.767Z,28.49
2022-07-25T15:25:27.263Z,28.37
2022-07-25T15:27:53.113Z,27.98
2022-07-25T15:30:38.474Z,27.79
2022-07-25T15:33:23.635Z,27.74
2022-07-25T15:36:09.007Z,27.81
2022-07-25T15:38:54.261Z,27.91
2022-07-25T15:41:39.661Z,27.86
2022-07-25T15:44:25.366Z,27.65
2022-07-25T15:47:10.917Z,27.68
2022-07-25T15:49:56.198Z,27.80
2022-07-25T15:52:42.171Z,27.79
2022-07-25T15:55:27.274Z,27.63
2022-07-25T15:58:13.801Z,27.39
2022-07-25T16:00:59.038Z,27.49
2022-07-25T16:03:44.420Z,27.44
2022-07-25T16:06:29.878Z,27.46
2022-07-25T16:09:15.292Z,27.44
2022-07-25T16:12:01.325Z,27.25
2022-07-25T16:14:46.492Z,27.14
2022-07-25T16:17:32.079Z,27.21
2022-07-25T16:20:17.636Z,27.06
2022-07-25T16:23:03.220Z,27.10
2022-07-25T16:25:48.409Z,26.90
2022-07-25T16:28:35.625Z,26.81
2022-07-25T16:31:20.751Z,26.85
2022-07-25T16:34:06.182Z,26.71
2022-07-25T16:36:51.887Z,26.45
2022-07-25T16:39:37.295Z,26.43
2022-07-25T16:42:22.806Z,26.42
2022-07-25T16:45:08.900Z,26.45
2022-07-25T16:47:54.264Z,26.45
2022-07-25T16:50:39.464Z,26.20
2022-07-25T16:53:24.728Z,25.82
2022-07-25T16:56:10.392Z,25.77
2022-07-25T16:58:55.699Z,25.66
2022-07-25T17:01:41.297Z,25.71
2022-07-25T17:04:26.541Z,25.44
2022-07-25T17:07:11.901Z,25.55
2022-07-25T17:09:57.364Z,25.48
2022-07-25T17:12:42.789Z,25.52
2022-07-25T17:15:28.284Z,25.57
2022-07-25T17:18:13.655Z,25.52
2022-07-25T17:20:59.134Z,25.47
2022-07-25T17:23:44.897Z,25.25
2022-07-25T17:26:30.301Z,25.08
2022-07-25T17:29:15.636Z,25.09
2022-07-25T17:32:01.116Z,24.87
2022-07-25T17:34:46.454Z,25.01
2022-07-25T17:37:31.773Z,25.09
2022-07-25T17:40:17.255Z,25.13
2022-07-25T17:43:02.784Z,25.14
2022-07-25T17:45:48.129Z,25.02
2022-07-25T17:48:33.643Z,25.02
2022-07-25T17:51:19.082Z,24.97
2022-07-25T17:54:04.834Z,24.93
2022-07-25T17:56:50.338Z,24.82
2022-07-25T17:59:35.893Z,24.73
2022-07-25T18:02:21.148Z,24.63
2022-07-25T18:05:07.030Z,24.70
2022-07-25T18:07:52.584Z,24.69
2022-07-25T18:10:38.026Z,24.57
2022-07-25T18:13:23.303Z,24.54
2022-07-25T18:16:09.993Z,24.48
2022-07-25T18:18:55.001Z,24.27
2022-07-25T18:21:40.387Z,24.32
2022-07-25T18:24:29.208Z,24.32
2022-07-25T18:27:14.677Z,24.28
2022-07-25T18:30:00.127Z,24.17
2022-07-25T18:32:45.534Z,24.21
2022-07-25T18:35:31.244Z,24.12
2022-07-25T18:38:16.796Z,24.10
2022-07-25T18:41:27.557Z,24.19
2022-07-25T18:44:07.007Z,24.10
2022-07-25T18:46:52.741Z,24.04
2022-07-25T18:49:38.112Z,24.06
2022-07-25T18:52:24.159Z,24.04
2022-07-25T18:55:09.812Z,24.05
2022-07-25T18:57:55.090Z,24.04
2022-07-25T19:00:40.058Z,23.89
2022-07-25T19:03:25.406Z,23.71
2022-07-25T19:06:10.999Z,23.71
2022-07-25T19:08:55.962Z,23.69
2022-07-25T19:11:42.389Z,23.74
2022-07-25T19:14:28.078Z,23.79
2022-07-25T19:17:13.176Z,23.66
2022-07-25T19:20:00.265Z,23.65
2022-07-25T19:22:45.351Z,23.59
2022-07-25T19:25:30.662Z,23.60
2022-07-25T19:28:15.589Z,23.60
2022-07-25T19:31:00.696Z,23.51
2022-07-25T19:33:46.037Z,23.46
2022-07-25T19:36:31.492Z,23.53
2022-07-25T19:39:16.630Z,23.52
2022-07-25T19:42:02.893Z,23.52
2022-07-25T19:44:47.978Z,23.59
2022-07-25T19:47:33.628Z,23.62
2022-07-25T19:50:19.496Z,23.54
2022-07-25T19:53:04.603Z,23.40
2022-07-25T19:55:49.985Z,23.24
2022-07-25T19:58:38.574Z,23.25
2022-07-25T20:01:24.452Z,23.16
2022-07-25T20:04:10.211Z,23.06
2022-07-25T20:06:55.596Z,22.95
2022-07-25T20:09:40.474Z,22.99
2022-07-25T20:12:25.288Z,23.06
2022-07-25T20:15:10.499Z,22.92
2022-07-25T20:17:55.592Z,22.96
2022-07-25T20:20:40.716Z,22.80
2022-07-25T20:23:26.680Z,22.66
2022-07-25T20:26:13.202Z,22.68
2022-07-25T20:28:58.153Z,22.54
2022-07-25T20:31:43.611Z,22.42
2022-07-25T20:34:28.737Z,22.32
2022-07-25T20:37:13.669Z,22.28
2022-07-25T20:39:58.925Z,22.21
2022-07-25T20:42:44.010Z,22.23
2022-07-25T20:45:29.323Z,22.21
2022-07-25T20:48:14.743Z,22.20
2022-07-25T20:51:00.806Z,22.13
2022-07-25T20:53:46.003Z,22.09
2022-07-25T20:56:38.499Z,22.04
2022-07-25T20:59:24.174Z,22.05
2022-07-25T21:02:09.748Z,21.96
2022-07-25T21:04:54.953Z,22.03
2022-07-25T21:07:40.322Z,21.96
2022-07-25T21:10:25.829Z,21.98
2022-07-25T21:13:11.191Z,21.85
2022-07-25T21:15:57.050Z,21.76
2022-07-25T21:18:42.653Z,21.75
2022-07-25T21:21:27.738Z,21.78
2022-07-25T21:24:13.007Z,21.75
2022-07-25T21:26:58.585Z,21.71
2022-07-25T21:29:44.015Z,21.63
2022-07-25T21:32:28.996Z,21.42
2022-07-25T21:35:14.482Z,21.30
2022-07-25T21:38:00.054Z,21.30
2022-07-25T21:40:45.229Z,21.30
2022-07-25T21:43:30.569Z,21.13
2022-07-25T21:46:15.581Z,21.00
2022-07-25T21:49:00.863Z,21.00
2022-07-25T21:51:46.254Z,20.97
2022-07-25T21:54:31.574Z,21.04
2022-07-25T21:57:17.029Z,21.13
2022-07-25T22:00:04.201Z,21.18
2022-07-25T22:02:49.824Z,21.28
2022-07-25T22:05:34.638Z,21.36
2022-07-25T22:08:19.911Z,21.38
2022-07-25T22:11:16.101Z,21.46
2022-07-25T22:14:10.680Z,21.48
2022-07-25T22:16:56.337Z,21.32
2022-07-25T22:19:41.621Z,21.37
2022-07-25T22:22:26.999Z,21.48
2022-07-25T22:25:12.670Z,21.42
2022-07-25T22:27:58.126Z,21.49
2022-07-25T22:30:43.447Z,21.41
2022-07-25T22:33:28.837Z,21.34
2022-07-25T22:36:14.264Z,21.37
2022-07-25T22:39:01.230Z,21.33
2022-07-25T22:41:46.589Z,21.27
2022-07-25T22:44:31.975Z,21.21
2022-07-25T22:47:17.373Z,21.26
2022-07-25T22:50:03.508Z,21.29
2022-07-25T22:52:48.474Z,21.21
2022-07-25T22:55:33.953Z,21.23
2022-07-25T22:58:19.322Z,21.21
2022-07-25T23:01:04.781Z,21.14
2022-07-25T23:03:50.464Z,21.03
2022-07-25T23:06:35.433Z,20.86
2022-07-25T23:09:20.412Z,20.87
2022-07-25T23:12:05.503Z,20.90
2022-07-25T23:14:50.722Z,20.78
2022-07-25T23:17:35.789Z,20.85
2022-07-25T23:20:21.039Z,20.64
2022-07-25T23:23:06.514Z,20.66
2022-07-25T23:25:51.919Z,20.62
2022-07-25T23:28:37.169Z,20.59
2022-07-25T23:31:22.477Z,20.71
2022-07-25T23:34:07.883Z,20.73
2022-07-25T23:36:53.426Z,20.77
2022-07-25T23:39:38.279Z,20.79
2022-07-25T23:42:23.721Z,20.83
2022-07-25T23:45:09.311Z,20.86
2022-07-25T23:47:56.807Z,20.77
2022-07-25T23:50:41.917Z,20.72
2022-07-25T23:53:27.335Z,20.70
2022-07-25T23:56:17.379Z,20.62
2022-07-25T23:59:06.148Z,20.58
